Aeroporto :
LOGIN :

Iscrizione | Disclaimer

   EN    FR    IT 

 










Sommario :    VFR   VFR Marginale   IFR   IFR Intensivo   IFR Molto Intensivo
Visibilità : 
Base nubi : 
>= 8 km
>= 3000ft
5 / 8 km
1000 / 3000 ft
1500m / 5 km
500 / 1000 ft
800 / 1500m
200 / 500 ft
< 800m
< 200 ft
Simboli :   Temporali  Nebbia  Neve Forte  Precipitazioni Forti  Vento > 20 kt
SIGMETs :   Varie  Temporali  Ghiacco  Turbolenza  Onda orograficha  Ceneri Vulcaniche






- Altitudine del aeroporto : 1115 ft
- Codice IATA : GRZ


LOWG - Graz

ULTIMO METAR :
  • 101620Z 13004KT 100V160 9999 FEW060 29/17 Q1015 NOSIG

METARs OBSOLETI :
  • 101550Z 13004KT 090V180 9999 FEW060 29/16 Q1015 NOSIG
  • 101520Z 14005KT 9999 FEW060 29/16 Q1015 NOSIG
  • 101450Z 15005KT 090V200 9999 FEW060 30/16 Q1015 NOSIG
  • 101420Z 13005KT 060V160 9999 FEW060 30/15 Q1015 NOSIG

TAF TAF LOWG
Valido dal 10 a 12 ore il 11 a 12 ore UTC


101115Z 1012/1112 15006KT 9999 FEW060 TX30/1014Z TN17/1104Z
TEMPO 1012/1016 15008KT FEW060CB
PROB30
TEMPO 1100/1104 0500 BCFG NSC
TEMPO 1109/1112 15008KT FEW050CB



MetMap, La meteo Aeronautica in un colpo d'occhio ! - Copyright ORBIFLY Dicembre 2007 - Disclaimer

ORBIFLY MET'MAP TEAM :

Programmazione e sviluppo : Alexandra Zaïnal
Concezione : Baudouin d'Aumeries
Aiuto per la programmazione : Marc-Olivier Méhu
Supporto tecnico e logistico : Manuel Goepfert
Aiuto per la traduzione : Arnaldo La Scala

Contatto : metmap@orbifly.com




FONTI E CREDITI :

   NOAA